Time;durP1;ratioP1;P1;durP2;ratioP2;P2;SDS_P1;SDS_P2;PMS_P1;PMS_P2;Temp;Humidity;BMP_temperature;BMP_pressure;BME280_temperature;BME280_humidity;BME280_pressure;Samples;Min_cycle;Max_cycle;Signal;HPM_P1;HPM_P2
2021/05/21 00:02:25;;;;;;;;;;;;;;;9.59;100.00;100555.38;5068864;28;20019;-69
2021/05/21 00:04:51;;;;;;;;;;;;;;;9.58;100.00;100551.81;5074041;28;19924;-69
2021/05/21 00:07:17;;;;;;;;;;;;;;;9.60;100.00;100548.97;5074464;28;20021;-69
2021/05/21 00:09:44;;;;;;;;;;;;;;;9.60;100.00;100549.81;5074207;28;19924;-69
2021/05/21 00:12:10;;;;;;;;;;;;;;;9.60;100.00;100538.97;5074636;28;19924;-69
2021/05/21 00:14:36;;;;;;;;;;;;;;;9.62;100.00;100536.16;5074254;28;19930;-68
2021/05/21 00:17:02;;;;;;;;;;;;;;;9.62;100.00;100537.03;5074148;28;19963;-68
2021/05/21 00:19:27;;;;;;;;;;;;;;;9.62;100.00;100528.00;5074314;28;20098;-68
2021/05/21 00:21:53;;;;;;;;;;;;;;;9.63;100.00;100529.75;5073827;28;20461;-69
2021/05/21 00:24:19;;;;;;;;;;;;;;;9.65;100.00;100528.63;5074112;28;20293;-68
2021/05/21 00:26:47;;;;;;;;;;;;;;;9.68;100.00;100522.13;5073869;28;20026;-69
2021/05/21 00:29:13;;;;;;;;;;;;;;;9.71;100.00;100519.16;5074128;28;20450;-69
2021/05/21 00:31:39;;;;;;;;;;;;;;;9.72;100.00;100512.75;5074135;28;19924;-68
2021/05/21 00:34:05;;;;;;;;;;;;;;;9.78;100.00;100508.66;5073704;28;19928;-68
2021/05/21 00:36:30;;;;;;;;;;;;;;;9.88;100.00;100513.22;5055891;28;20272;-69
2021/05/21 00:38:56;;;;;;;;;;;;;;;9.93;100.00;100504.72;5055498;28;19924;-69
2021/05/21 00:41:23;;;;;;;;;;;;;;;9.97;100.00;100498.03;5074096;28;19931;-69
2021/05/21 00:43:52;;;;;;;;;;;;;;;10.03;100.00;100493.97;5073668;28;19948;-69
2021/05/21 00:46:18;;;;;;;;;;;;;;;10.08;100.00;100491.72;5073646;28;19974;-69
2021/05/21 00:48:44;;;;;;;;;;;;;;;10.15;100.00;100495.66;5073705;28;20026;-69
2021/05/21 00:51:10;;;;;;;;;;;;;;;10.21;100.00;100483.44;5073698;28;19929;-69
2021/05/21 00:53:37;;;;;;;;;;;;;;;10.27;100.00;100485.63;5073640;28;19924;-69
2021/05/21 00:56:04;;;;;;;;;;;;;;;10.33;100.00;100492.41;5073566;28;19924;-68
2021/05/21 00:58:30;;;;;;;;;;;;;;;10.36;100.00;100497.59;5073195;28;19978;-69
2021/05/21 01:00:57;;;;;;;;;;;;;;;10.45;100.00;100515.81;5071880;28;19936;-69
2021/05/21 01:03:23;;;;;;;;;;;;;;;10.50;100.00;100507.28;5072640;28;19924;-68
2021/05/21 01:05:49;;;;;;;;;;;;;;;10.54;100.00;100496.06;5072401;28;19978;-68
2021/05/21 01:08:15;;;;;;;;;;;;;;;10.59;100.00;100482.06;5073290;28;20023;-69
2021/05/21 01:10:41;;;;;;;;;;;;;;;10.60;100.00;100478.38;5073167;28;19970;-69
2021/05/21 01:13:07;;;;;;;;;;;;;;;10.64;100.00;100473.56;5055248;28;19928;-69
2021/05/21 01:15:34;;;;;;;;;;;;;;;10.66;100.00;100467.00;5072805;28;20360;-69
2021/05/21 01:18:00;;;;;;;;;;;;;;;10.64;100.00;100452.69;5073202;28;19971;-69
2021/05/21 01:20:30;;;;;;;;;;;;;;;10.62;100.00;100449.25;5073091;28;19935;-68
2021/05/21 01:22:55;;;;;;;;;;;;;;;10.60;100.00;100448.53;5073011;28;20022;-68
2021/05/21 01:25:21;;;;;;;;;;;;;;;10.58;100.00;100446.94;5055201;28;19928;-68
2021/05/21 01:27:47;;;;;;;;;;;;;;;10.54;100.00;100447.19;5072930;28;19930;-68
2021/05/21 01:30:13;;;;;;;;;;;;;;;10.49;100.00;100430.44;5072861;28;19931;-68
2021/05/21 01:32:39;;;;;;;;;;;;;;;10.45;100.00;100420.84;5072884;28;19970;-68
2021/05/21 01:35:06;;;;;;;;;;;;;;;10.41;100.00;100419.41;5052827;28;20315;-69
2021/05/21 01:37:33;;;;;;;;;;;;;;;10.36;100.00;100422.47;5054143;28;19924;-69
2021/05/21 01:40:00;;;;;;;;;;;;;;;10.32;100.00;100410.13;5072537;28;19978;-68
2021/05/21 01:42:26;;;;;;;;;;;;;;;10.27;100.00;100411.53;5072815;28;19975;-68
2021/05/21 01:44:54;;;;;;;;;;;;;;;10.22;100.00;100406.47;5054509;28;19925;-69
2021/05/21 01:47:20;;;;;;;;;;;;;;;10.16;100.00;100405.16;5072733;28;19924;-68
2021/05/21 01:49:45;;;;;;;;;;;;;;;10.11;100.00;100393.84;5072285;28;20422;-68
2021/05/21 01:52:11;;;;;;;;;;;;;;;10.07;100.00;100389.66;5072552;28;19924;-69
2021/05/21 01:54:38;;;;;;;;;;;;;;;10.01;100.00;100388.34;5072592;28;19928;-68
2021/05/21 01:57:04;;;;;;;;;;;;;;;9.97;100.00;100386.03;5072154;28;19924;-68
2021/05/21 01:59:31;;;;;;;;;;;;;;;9.91;100.00;100391.94;5072515;28;19940;-68
2021/05/21 02:01:56;;;;;;;;;;;;;;;9.82;100.00;100397.16;5052631;28;19928;-69
2021/05/21 02:04:30;;;;;;;;;;;;;;;9.76;100.00;100386.81;5072017;28;20000;-68
2021/05/21 02:06:56;;;;;;;;;;;;;;;9.69;100.00;100388.31;5071874;28;19931;-69
2021/05/21 02:09:21;;;;;;;;;;;;;;;9.62;100.00;100384.38;5071849;28;19928;-68
2021/05/21 02:11:48;;;;;;;;;;;;;;;9.55;100.00;100375.91;5072310;28;19981;-68
2021/05/21 02:14:14;;;;;;;;;;;;;;;9.49;100.00;100373.72;5071987;28;19924;-68
2021/05/21 02:16:40;;;;;;;;;;;;;;;9.44;100.00;100370.53;5071769;28;19931;-69
2021/05/21 02:19:06;;;;;;;;;;;;;;;9.38;100.00;100369.19;5072101;28;19932;-69
2021/05/21 02:21:33;;;;;;;;;;;;;;;9.34;100.00;100368.56;5072169;28;19925;-68
2021/05/21 02:24:00;;;;;;;;;;;;;;;9.31;100.00;100358.00;5071803;28;19928;-68
2021/05/21 02:26:26;;;;;;;;;;;;;;;9.30;100.00;100352.66;5071480;28;19931;-68
2021/05/21 02:28:53;;;;;;;;;;;;;;;9.28;100.00;100346.53;5071738;28;19928;-68
2021/05/21 02:31:18;;;;;;;;;;;;;;;9.26;100.00;100338.53;5071913;28;20238;-68
2021/05/21 02:33:44;;;;;;;;;;;;;;;9.23;100.00;100330.66;5071506;28;19970;-68
2021/05/21 02:36:10;;;;;;;;;;;;;;;9.19;100.00;100324.66;5071824;28;19928;-69
2021/05/21 02:38:36;;;;;;;;;;;;;;;9.15;100.00;100331.31;5071422;28;19970;-68
2021/05/21 02:41:02;;;;;;;;;;;;;;;9.12;100.00;100323.41;5071906;28;19932;-68
2021/05/21 02:43:27;;;;;;;;;;;;;;;9.10;100.00;100321.81;5071428;28;19939;-68
2021/05/21 02:45:54;;;;;;;;;;;;;;;9.11;100.00;100320.81;5071085;28;20022;-68
2021/05/21 02:48:20;;;;;;;;;;;;;;;9.11;100.00;100320.81;5071730;28;19925;-69
2021/05/21 02:50:46;;;;;;;;;;;;;;;9.09;100.00;100315.53;5071275;28;19932;-68
2021/05/21 02:53:11;;;;;;;;;;;;;;;9.10;100.00;100309.16;5071440;28;19977;-68
2021/05/21 02:55:37;;;;;;;;;;;;;;;9.11;100.00;100310.84;5071558;28;19925;-68
2021/05/21 02:58:03;;;;;;;;;;;;;;;9.13;100.00;100302.63;5071261;28;19948;-69
2021/05/21 03:00:29;;;;;;;;;;;;;;;9.16;100.00;100310.47;5071090;28;19971;-69
2021/05/21 03:02:56;;;;;;;;;;;;;;;9.14;100.00;100310.63;5050977;28;19946;-68
2021/05/21 03:05:22;;;;;;;;;;;;;;;9.13;100.00;100299.91;5071568;28;20038;-68
2021/05/21 03:07:50;;;;;;;;;;;;;;;9.11;100.00;100301.88;5071391;28;19928;-68
2021/05/21 03:10:16;;;;;;;;;;;;;;;9.07;100.00;100303.97;5071060;28;19976;-68
2021/05/21 03:12:42;;;;;;;;;;;;;;;9.01;100.00;100304.47;5071366;28;19925;-69
2021/05/21 03:15:08;;;;;;;;;;;;;;;8.97;100.00;100293.03;5070903;28;19925;-68
2021/05/21 03:17:34;;;;;;;;;;;;;;;8.92;100.00;100299.81;5071310;28;20395;-69
2021/05/21 03:20:01;;;;;;;;;;;;;;;8.88;100.00;100293.78;5071175;28;19978;-68
2021/05/21 03:22:26;;;;;;;;;;;;;;;8.87;100.00;100295.63;5070823;28;19936;-69
2021/05/21 03:24:52;;;;;;;;;;;;;;;8.87;100.00;100292.94;5070801;28;19924;-68
2021/05/21 03:27:18;;;;;;;;;;;;;;;8.84;100.00;100281.47;5069976;28;19925;-69
2021/05/21 03:29:44;;;;;;;;;;;;;;;8.83;100.00;100291.47;5071016;28;20384;-68
2021/05/21 03:32:12;;;;;;;;;;;;;;;8.83;100.00;100290.56;5071066;28;20367;-68
2021/05/21 03:34:38;;;;;;;;;;;;;;;8.84;100.00;100276.91;5067340;28;19925;-68
2021/05/21 03:37:04;;;;;;;;;;;;;;;8.86;100.00;100283.06;5071214;28;19925;-68
2021/05/21 03:39:30;;;;;;;;;;;;;;;8.85;100.00;100284.06;5070653;28;19925;-68
2021/05/21 03:41:56;;;;;;;;;;;;;;;8.84;100.00;100276.91;5052749;28;19982;-68
2021/05/21 03:44:22;;;;;;;;;;;;;;;8.85;100.00;100280.50;5070764;28;20380;-68
2021/05/21 03:46:48;;;;;;;;;;;;;;;8.85;100.00;100272.38;5070481;28;19924;-68
2021/05/21 03:49:16;;;;;;;;;;;;;;;8.87;100.00;100275.81;5071137;28;19928;-68
2021/05/21 03:51:41;;;;;;;;;;;;;;;8.89;100.00;100271.13;5070503;28;19925;-69
2021/05/21 03:54:08;;;;;;;;;;;;;;;8.92;100.00;100268.19;5070813;28;19932;-69
2021/05/21 03:56:34;;;;;;;;;;;;;;;8.98;100.00;100264.09;5070700;28;19928;-68
2021/05/21 03:59:00;;;;;;;;;;;;;;;9.04;100.00;100261.75;5070285;28;19970;-68
2021/05/21 04:01:26;;;;;;;;;;;;;;;9.14;100.00;100264.56;5052015;28;19928;-69
2021/05/21 04:03:52;;;;;;;;;;;;;;;9.23;100.00;100260.22;5070102;28;19924;-68
2021/05/21 04:06:18;;;;;;;;;;;;;;;9.34;100.00;100259.34;5052646;28;19939;-68
2021/05/21 04:08:44;;;;;;;;;;;;;;;9.44;100.00;100254.03;5070555;28;19924;-69
2021/05/21 04:11:11;;;;;;;;;;;;;;;9.58;100.00;100250.13;5070679;28;19928;-69
2021/05/21 04:13:37;;;;;;;;;;;;;;;9.70;100.00;100246.38;5070406;28;19970;-69
2021/05/21 04:16:02;;;;;;;;;;;;;;;9.83;100.00;100254.34;5070240;28;19929;-69
2021/05/21 04:18:28;;;;;;;;;;;;;;;9.95;100.00;100245.13;5070567;28;20021;-69
2021/05/21 04:20:54;;;;;;;;;;;;;;;10.05;100.00;100246.06;5070534;28;19924;-68
2021/05/21 04:23:20;;;;;;;;;;;;;;;10.15;100.00;100240.69;5070122;28;19948;-69
2021/05/21 04:25:46;;;;;;;;;;;;;;;10.25;100.00;100248.03;5070649;28;19982;-69
2021/05/21 04:28:14;;;;;;;;;;;;;;;10.33;100.00;100240.09;5070087;28;19986;-69
2021/05/21 04:30:40;;;;;;;;;;;;;;;10.36;100.00;100232.56;5070598;28;19943;-68
2021/05/21 04:33:06;;;;;;;;;;;;;;;10.40;100.00;100227.72;5069892;28;19932;-68
2021/05/21 04:35:32;;;;;;;;;;;;;;;10.42;100.00;100222.16;5070316;28;19925;-68
2021/05/21 04:37:58;;;;;;;;;;;;;;;10.42;100.00;100216.75;5070334;28;19936;-70
2021/05/21 04:40:24;;;;;;;;;;;;;;;10.38;100.00;100218.84;5059941;28;20277;-69
2021/05/21 04:42:49;;;;;;;;;;;;;;;10.35;100.00;100219.13;5053755;28;19932;-69
2021/05/21 04:45:16;;;;;;;;;;;;;;;10.32;100.00;100208.53;5058812;28;19925;-69
2021/05/21 04:47:42;;;;;;;;;;;;;;;10.29;100.00;100197.94;5073554;28;19993;-69
2021/05/21 04:50:09;;;;;;;;;;;;;;;10.28;100.00;100205.22;5073790;28;19932;-69
2021/05/21 04:52:34;;;;;;;;;;;;;;;10.36;100.00;100200.00;5073085;28;19928;-69
2021/05/21 04:55:00;;;;;;;;;;;;;;;10.43;100.00;100205.75;5073561;28;20015;-69
2021/05/21 04:57:26;;;;;;;;;;;;;;;10.51;100.00;100197.78;5067990;28;20392;-69
2021/05/21 04:59:52;;;;;;;;;;;;;;;10.67;100.00;100186.41;5053443;28;20384;-69
2021/05/21 05:02:19;;;;;;;;;;;;;;;10.80;100.00;100183.44;5067760;28;19928;-69
2021/05/21 05:04:44;;;;;;;;;;;;;;;10.94;100.00;100171.31;5073024;28;19929;-69
2021/05/21 05:07:10;;;;;;;;;;;;;;;11.11;100.00;100172.47;5061446;28;19924;-69
2021/05/21 05:09:36;;;;;;;;;;;;;;;11.22;100.00;100164.22;5056943;28;19925;-69
2021/05/21 05:12:02;;;;;;;;;;;;;;;11.35;100.00;100160.34;5060259;28;20344;-69
2021/05/21 05:14:27;;;;;;;;;;;;;;;11.39;100.00;100153.63;5065177;28;19929;-69
2021/05/21 05:16:55;;;;;;;;;;;;;;;11.56;100.00;100158.31;5052740;28;19925;-69
2021/05/21 05:19:21;;;;;;;;;;;;;;;11.72;100.00;100155.00;5063998;28;19924;-69
2021/05/21 05:21:48;;;;;;;;;;;;;;;11.83;100.00;100148.53;5064603;28;19935;-69
2021/05/21 05:24:15;;;;;;;;;;;;;;;12.02;100.00;100141.38;5071590;28;19975;-69
2021/05/21 05:26:42;;;;;;;;;;;;;;;12.19;100.00;100139.72;5072990;28;19932;-69
2021/05/21 05:29:08;;;;;;;;;;;;;;;12.37;100.00;100126.16;5071761;28;19932;-70
2021/05/21 05:31:33;;;;;;;;;;;;;;;12.48;100.00;100112.38;5070964;28;20312;-69
2021/05/21 05:33:59;;;;;;;;;;;;;;;12.60;100.00;100121.19;5051758;28;20505;-69
2021/05/21 05:36:26;;;;;;;;;;;;;;;12.84;100.00;100117.88;5072671;28;19925;-72
2021/05/21 05:38:52;;;;;;;;;;;;;;;12.87;100.00;100112.13;5056736;28;19924;-72
2021/05/21 05:41:18;;;;;;;;;;;;;;;13.07;100.00;100106.53;5035653;28;19925;-71
2021/05/21 05:43:44;;;;;;;;;;;;;;;13.25;100.00;100113.84;5053560;28;19928;-71
2021/05/21 05:46:10;;;;;;;;;;;;;;;13.37;100.00;100101.69;5052295;28;19959;-71
2021/05/21 05:48:36;;;;;;;;;;;;;;;13.56;100.00;100097.91;5060102;28;19928;-70
2021/05/21 05:51:02;;;;;;;;;;;;;;;13.80;100.00;100094.50;5071204;28;20338;-71
2021/05/21 05:53:32;;;;;;;;;;;;;;;14.19;100.00;100090.41;5064763;28;19925;-69
2021/05/21 05:55:58;;;;;;;;;;;;;;;14.49;100.00;100079.97;5059938;28;19978;-71
2021/05/21 05:58:24;;;;;;;;;;;;;;;14.62;100.00;100083.09;5069855;28;19924;-72
2021/05/21 06:00:49;;;;;;;;;;;;;;;15.09;100.00;100075.34;5051142;28;19979;-70
2021/05/21 06:03:15;;;;;;;;;;;;;;;15.45;100.00;100075.84;5053448;28;20298;-71
2021/05/21 06:05:41;;;;;;;;;;;;;;;15.55;100.00;100073.78;5065924;28;19939;-72
2021/05/21 06:08:08;;;;;;;;;;;;;;;15.71;100.00;100064.69;5038593;28;19935;-72
2021/05/21 06:10:36;;;;;;;;;;;;;;;16.13;100.00;100068.19;5054111;28;19924;-73
2021/05/21 06:13:02;;;;;;;;;;;;;;;16.55;100.00;100071.59;5055263;28;19935;-72
2021/05/21 06:15:28;;;;;;;;;;;;;;;16.63;100.00;100063.31;5065425;28;19925;-71
2021/05/21 06:17:54;;;;;;;;;;;;;;;16.68;100.00;100057.31;5069824;28;19925;-72
2021/05/21 06:20:20;;;;;;;;;;;;;;;17.28;100.00;100049.34;5051972;28;20023;-70
2021/05/21 06:22:46;;;;;;;;;;;;;;;17.34;100.00;100045.84;5051453;28;19968;-69
2021/05/21 06:25:12;;;;;;;;;;;;;;;17.27;100.00;100044.91;5032914;28;19967;-70
2021/05/21 06:27:39;;;;;;;;;;;;;;;17.10;100.00;100042.28;5051025;28;19925;-71
2021/05/21 06:30:08;;;;;;;;;;;;;;;17.17;100.00;100035.03;5051147;28;19925;-72
2021/05/21 06:32:34;;;;;;;;;;;;;;;17.37;100.00;100031.75;5065181;28;19929;-71
2021/05/21 06:35:00;;;;;;;;;;;;;;;17.69;100.00;100018.75;5060881;28;19982;-72
2021/05/21 06:37:28;;;;;;;;;;;;;;;17.84;98.34;100021.53;5051305;28;19925;-70
2021/05/21 06:39:54;;;;;;;;;;;;;;;17.85;96.61;100014.97;5051423;28;20348;-72
2021/05/21 06:42:20;;;;;;;;;;;;;;;18.17;94.88;100005.53;5050374;28;19924;-70
2021/05/21 06:44:46;;;;;;;;;;;;;;;17.91;93.29;100006.81;5033092;28;19925;-70
2021/05/21 06:47:12;;;;;;;;;;;;;;;17.99;95.80;99996.84;5050053;28;19947;-71
2021/05/21 06:49:39;;;;;;;;;;;;;;;18.39;92.66;99986.34;5034154;28;20387;-71
2021/05/21 06:52:05;;;;;;;;;;;;;;;18.81;88.70;99981.88;5031907;28;19924;-70
2021/05/21 06:54:32;;;;;;;;;;;;;;;19.02;85.21;99978.31;5031158;28;20294;-70
2021/05/21 06:56:57;;;;;;;;;;;;;;;19.57;84.88;99972.16;5049438;28;19936;-70
2021/05/21 06:59:23;;;;;;;;;;;;;;;20.03;81.35;99973.47;5050760;28;19925;-71
2021/05/21 07:01:50;;;;;;;;;;;;;;;20.36;74.15;99970.88;5059810;28;19928;-70
2021/05/21 07:04:16;;;;;;;;;;;;;;;20.20;69.66;99958.31;5071183;28;19971;-70
2021/05/21 07:06:41;;;;;;;;;;;;;;;19.74;74.61;99961.69;5070628;28;20023;-70
2021/05/21 07:09:07;;;;;;;;;;;;;;;19.86;72.71;99954.56;5071231;28;19931;-71
2021/05/21 07:11:33;;;;;;;;;;;;;;;20.52;69.81;99957.75;5071407;28;19924;-71
2021/05/21 07:13:59;;;;;;;;;;;;;;;20.46;66.12;99947.59;5070596;28;20324;-69
2021/05/21 07:16:25;;;;;;;;;;;;;;;20.19;63.89;99941.97;5071488;28;19936;-69
2021/05/21 07:18:52;;;;;;;;;;;;;;;20.92;65.30;99941.28;5070360;28;19947;-68
2021/05/21 07:21:18;;;;;;;;;;;;;;;20.51;61.98;99931.25;5071021;28;20125;-69
2021/05/21 07:23:44;;;;;;;;;;;;;;;20.61;61.82;99931.69;5070638;28;20032;-69
2021/05/21 07:26:10;;;;;;;;;;;;;;;21.02;59.35;99925.16;5067497;28;19970;-69
2021/05/21 07:28:35;;;;;;;;;;;;;;;20.65;58.53;99929.38;5071077;28;19929;-69
2021/05/21 07:31:01;;;;;;;;;;;;;;;19.79;61.44;99922.50;5069168;28;19936;-69
2021/05/21 07:33:28;;;;;;;;;;;;;;;19.15;65.57;99917.06;5052917;28;19928;-69
2021/05/21 07:35:55;;;;;;;;;;;;;;;18.99;68.32;99917.38;5071061;28;19972;-69
2021/05/21 07:38:20;;;;;;;;;;;;;;;19.01;72.00;99907.88;5070583;28;19931;-69
2021/05/21 07:40:46;;;;;;;;;;;;;;;18.66;71.84;99909.66;5070913;28;19924;-69
2021/05/21 07:43:12;;;;;;;;;;;;;;;18.45;73.12;99913.25;5070524;28;20400;-69
2021/05/21 07:45:38;;;;;;;;;;;;;;;17.89;80.41;99909.22;5070999;28;20384;-68
2021/05/21 07:48:04;;;;;;;;;;;;;;;17.56;84.11;99909.66;5052799;28;20015;-68
2021/05/21 07:50:31;;;;;;;;;;;;;;;18.24;81.69;99902.06;5068452;28;19931;-69
2021/05/21 07:52:58;;;;;;;;;;;;;;;18.83;76.85;99893.75;5060620;28;20400;-69
2021/05/21 07:55:25;;;;;;;;;;;;;;;19.02;73.35;99879.31;5050732;28;20447;-69
2021/05/21 07:57:50;;;;;;;;;;;;;;;19.06;73.65;99882.50;5050766;28;19947;-69
2021/05/21 08:00:17;;;;;;;;;;;;;;;19.26;70.97;99876.31;5064367;28;19975;-69
2021/05/21 08:02:43;;;;;;;;;;;;;;;19.26;70.80;99865.31;5067860;28;20006;-69
2021/05/21 08:05:09;;;;;;;;;;;;;;;19.45;70.09;99858.19;5069315;28;19929;-68
2021/05/21 08:07:35;;;;;;;;;;;;;;;19.40;70.17;99847.78;5050197;28;19936;-68
2021/05/21 08:10:04;;;;;;;;;;;;;;;19.72;66.90;99860.03;5050690;28;19929;-69
2021/05/21 08:12:30;;;;;;;;;;;;;;;19.95;64.28;99849.72;5052240;28;20292;-75
2021/05/21 08:14:56;;;;;;;;;;;;;;;19.69;62.21;99840.31;5046895;28;19925;-77
2021/05/21 08:17:22;;;;;;;;;;;;;;;20.72;61.35;99833.75;5054472;28;19925;-77
2021/05/21 08:19:48;;;;;;;;;;;;;;;21.14;57.28;99831.56;5059202;28;19997;-76
2021/05/21 08:22:14;;;;;;;;;;;;;;;21.76;54.34;99820.09;5041850;28;19978;-74
2021/05/21 08:24:40;;;;;;;1999.90;999.90;;;;;;;21.73;54.19;99815.03;5053286;28;20437;-80
2021/05/21 08:27:07;;;;;;;1999.90;999.90;;;;;;;21.04;56.21;99817.38;5054445;28;20429;-80
2021/05/21 08:29:33;;;;;;;1999.90;999.90;;;;;;;20.65;56.91;99811.66;5056970;28;20431;-80
2021/05/21 08:32:01;;;;;;;;;;;;;;;19.99;56.46;99820.72;5062312;28;20425;-77
2021/05/21 08:34:27;;;;;;;;;;;;;;;20.36;56.97;99810.19;5072691;28;19951;-78
2021/05/21 08:36:53;;;;;;;;;;;;;;;20.97;53.34;99809.09;5076501;28;19928;-79
2021/05/21 08:39:20;;;;;;;;;;;;;;;21.19;51.74;99798.66;5076650;28;19921;-79
2021/05/21 08:41:49;;;;;;;;;;;;;;;21.80;52.62;99804.78;5041331;28;19921;-81
2021/05/21 08:44:16;;;;;;;;;;;;;;;21.52;51.88;99800.44;5074419;28;19924;-81
2021/05/21 08:46:42;;;;;;;;;;;;;;;21.04;50.98;99784.25;5056641;28;19921;-78
2021/05/21 08:49:08;;;;;;;;;;;;;;;21.06;52.79;99787.66;5074078;28;19974;-78
2021/05/21 08:51:34;;;;;;;;;;;;;;;20.79;52.51;99776.69;5074214;28;19947;-79
2021/05/21 08:54:00;;;;;;;;;;;;;;;19.92;55.05;99781.31;5075147;28;19920;-78
2021/05/21 08:56:26;;;;;;;;;;;;;;;19.88;57.42;99786.38;5073967;28;19921;-79
2021/05/21 08:58:52;;;;;;;;;;;;;;;19.36;59.30;99775.84;5068816;28;19920;-73
2021/05/21 09:01:19;;;;;;;;;;;;;;;19.39;59.40;99772.66;5071062;28;19924;-73
2021/05/21 09:03:48;;;;;;;;;;;;;;;18.84;60.76;99763.47;5054911;28;19921;-71
2021/05/21 09:06:16;;;;;;;;;;;;;;;19.53;61.46;99765.28;5073412;28;19920;-74
2021/05/21 09:08:44;;;;;;;;;;;;;;;20.80;56.84;99744.44;5072854;28;19924;-72
2021/05/21 09:11:27;;;;;;;;;;;;;;;21.68;54.42;99751.34;5055647;28;19974;-73
2021/05/21 09:13:56;;;;;;;;;;;;;;;22.29;50.55;99730.50;5068502;28;20023;-74
2021/05/21 09:16:24;;;;;;;;;;;;;;;22.11;51.86;99739.56;5053366;28;19921;-73
2021/05/21 09:19:04;;;;;;;;;;;;;;;21.96;50.84;99736.28;5053446;28;19935;-73
2021/05/21 09:21:44;;;;;;;;;;;;;;;22.57;49.39;99720.91;5035238;28;19967;-72
2021/05/21 09:24:10;;;;;;;;;;;;;;;22.88;47.48;99719.91;5055952;28;19985;-72
2021/05/21 09:26:40;;;;;;;;;;;;;;;22.76;47.10;99713.47;5053165;28;19920;-72
2021/05/21 09:29:06;;;;;;;;;;;;;;;22.03;50.25;99724.13;5061818;28;19944;-73
2021/05/21 09:31:40;;;;;;;;;;;;;;;21.16;52.36;99718.22;5063502;28;20440;-70
2021/05/21 09:34:06;;;;;;;;;;;;;;;21.19;52.73;99712.25;5052978;28;19920;-69
2021/05/21 09:36:33;;;;;;;;;;;;;;;21.11;52.55;99720.78;5062572;28;19920;-69
2021/05/21 09:39:00;;;;;;;;;;;;;;;21.49;52.77;99718.06;5069690;28;20441;-69
2021/05/21 09:41:26;;;;;;;;;;;;;;;22.06;50.93;99707.09;5072776;28;19920;-70
2021/05/21 09:43:52;;;;;;;;;;;;;;;22.12;48.11;99712.78;5053788;28;19920;-70
2021/05/21 09:46:18;;;;;;;;;;;;;;;21.77;47.86;99708.56;5053637;28;19928;-70
2021/05/21 09:48:44;;;;;;;;;;;;;;;21.61;47.90;99712.72;5054332;28;20351;-71
2021/05/21 09:51:11;;;;;;;;;;;;;;;20.91;48.05;99707.91;5054534;28;19920;-69
2021/05/21 09:53:37;;;;;;;1999.90;999.90;;;;;;;20.35;54.58;99714.78;5054048;28;21061;-70
2021/05/21 09:56:04;;;;;;;;;;;;;;;19.74;50.97;99717.50;5071793;28;20419;-70
2021/05/21 09:58:32;;;;;;;;;;;;;;;21.16;48.37;99699.75;5060449;28;20336;-70
2021/05/21 10:01:11;;;;;;;;;;;;;;;21.40;47.71;99716.63;5038142;28;19930;-75
2021/05/21 10:03:37;;;;;;;;;;;;;;;21.01;49.29;99708.31;5036490;28;20340;-75
2021/05/21 10:06:04;;;;;;;;;;;;;;;20.74;51.49;99691.00;5052336;28;19921;-75
2021/05/21 10:08:30;;;;;;;;;;;;;;;21.32;47.66;99692.03;5062891;28;19961;-75
2021/05/21 10:10:56;;;;;;;;;;;;;;;21.88;45.34;99695.97;5052736;28;19991;-75
2021/05/21 10:13:22;;;;;;;1999.90;999.90;;;;;;;21.50;46.80;99694.91;5051491;28;20454;-77
2021/05/21 10:15:49;;;;;;;;;;;;;;;20.08;45.36;99687.25;5051241;28;20504;-76
2021/05/21 10:18:15;;;;;;;;;;;;;;;19.21;49.01;99706.34;5061805;28;19960;-75
2021/05/21 10:20:42;;;;;;;;;;;;;;;20.14;48.03;99680.91;5058373;28;19920;-76
2021/05/21 10:23:11;;;;;;;;;;;;;;;19.80;49.22;99670.91;5053326;28;19920;-76
2021/05/21 10:25:38;;;;;;;;;;;;;;;19.95;49.23;99673.47;5060211;28;19952;-76
2021/05/21 10:28:05;;;;;;;;;;;;;;;20.54;47.90;99672.56;5051579;28;19921;-77
2021/05/21 10:30:34;;;;;;;;;;;;;;;20.31;48.97;99702.50;5060824;28;20268;-76
2021/05/21 10:33:20;;;;;;;;;;;;;;;21.57;47.31;99675.56;5070211;28;19921;-75
2021/05/21 10:36:23;;;;;;;;;;;;;;;22.40;44.18;99668.13;5058800;28;19925;-77
2021/05/21 10:39:10;;;;;;;;;;;;;;;21.10;43.83;99662.03;5067349;28;19925;-76
2021/05/21 10:41:56;;;;;;;;;;;;;;;20.56;42.14;99653.91;5052974;28;20346;-75
2021/05/21 10:44:22;;;;;;;;;;;;;;;19.95;44.18;99665.22;5033587;28;20450;-75
2021/05/21 10:46:49;;;;;;;;;;;;;;;19.35;44.82;99661.31;5050360;28;19959;-75
2021/05/21 10:49:25;;;;;;;1999.90;999.90;;;;;;;19.48;45.86;99665.16;5050079;28;20898;-76
2021/05/21 10:51:52;;;;;;;1999.90;999.90;;;;;;;19.42;47.06;99666.00;5049278;28;20490;-75
2021/05/21 10:54:31;;;;;;;1999.90;999.90;;;;;;;20.05;45.19;99655.47;5030822;28;20414;-75
2021/05/21 10:57:10;;;;;;;1999.90;999.90;;;;;;;21.04;42.02;99657.38;5050429;28;20837;-75
2021/05/21 10:59:40;;;;;;;1999.90;999.90;;;;;;;21.89;39.26;99643.25;5037548;28;20428;-75
2021/05/21 11:02:06;;;;;;;;;;;;;;;22.18;37.44;99634.47;5049552;28;20432;-76
2021/05/21 11:04:32;;;;;;;;;;;;;;;22.41;36.06;99633.88;5070630;28;19974;-74
2021/05/21 11:06:59;;;;;;;;;;;;;;;22.60;34.61;99631.97;5054150;28;20053;-76
2021/05/21 11:09:28;;;;;;;;;;;;;;;22.54;35.65;99630.97;5051471;28;19920;-76
2021/05/21 11:12:05;;;;;;;;;;;;;;;22.98;35.05;99621.69;5051661;28;20442;-77
2021/05/21 11:14:32;;;;;;;;;;;;;;;22.88;35.25;99620.31;5067274;28;19959;-75
2021/05/21 11:16:59;;;;;;;;;;;;;;;22.98;35.79;99627.22;5051734;28;19928;-75
2021/05/21 11:19:26;;;;;;;;;;;;;;;23.19;36.48;99615.69;5016721;28;19931;-75
2021/05/21 11:21:53;;;;;;;;;;;;;;;22.74;36.07;99618.81;5050939;28;19925;-75
2021/05/21 11:24:34;;;;;;;;;;;;;;;22.46;36.18;99619.34;5050320;28;19924;-76
2021/05/21 11:27:01;;;;;;;;;;;;;;;22.37;37.34;99641.78;5050877;28;20354;-77
2021/05/21 11:29:27;;;;;;;;;;;;;;;22.38;38.14;99623.25;5058104;28;19925;-75
2021/05/21 11:31:53;;;;;;;;;;;;;;;22.56;37.30;99622.44;5058546;28;19924;-77
2021/05/21 11:34:20;;;;;;;;;;;;;;;22.70;37.82;99612.91;5064131;28;19979;-76
2021/05/21 11:36:46;;;;;;;;;;;;;;;23.69;40.75;99613.66;5038031;28;20277;-76
2021/05/21 11:39:11;;;;;;;;;;;;;;;23.99;37.41;99610.81;5035573;28;19925;-74
2021/05/21 11:41:39;;;;;;;;;;;;;;;22.54;36.78;99613.50;5035286;28;19925;-75
2021/05/21 11:44:09;;;;;;;;;;;;;;;21.59;39.01;99611.84;5053332;28;19924;-75
2021/05/21 11:46:36;;;;;;;1999.90;999.90;;;;;;;22.69;37.57;99597.38;5058880;28;20421;-79
2021/05/21 11:49:07;;;;;;;1999.90;999.90;;;;;;;22.49;37.24;99610.59;5053587;28;20439;-73
2021/05/21 11:51:33;;;;;;;1999.90;999.90;;;;;;;22.99;36.47;99595.72;5072452;28;20787;-75
2021/05/21 11:54:02;;;;;;;1999.90;999.90;;;;;;;22.23;37.79;99623.59;5063643;28;20427;-75
2021/05/21 11:56:29;;;;;;;1999.90;999.90;;;;;;;22.47;38.01;99616.34;5056491;28;20794;-74
2021/05/21 11:59:00;;;;;;;1999.90;999.90;;;;;;;23.59;36.50;99628.09;5053930;28;20898;-73
2021/05/21 12:01:27;;;;;;;;;;;;;;;23.31;37.67;99604.66;5067825;28;20429;-72
2021/05/21 12:03:53;;;;;;;;;;;;;;;23.72;36.04;99615.97;5065242;28;19946;-73
2021/05/21 12:06:19;;;;;;;;;;;;;;;23.38;35.77;99604.56;5055868;28;19921;-73
2021/05/21 12:08:47;;;;;;;;;;;;;;;22.70;36.06;99610.16;5070508;28;19920;-72
2021/05/21 12:11:13;;;;;;;;;;;;;;;21.46;36.92;99604.47;5073956;28;19927;-72
2021/05/21 12:13:39;;;;;;;;;;;;;;;21.98;37.24;99604.28;5074186;28;19924;-72
2021/05/21 12:16:08;;;;;;;;;;;;;;;21.97;38.70;99597.94;5063756;28;20419;-73
2021/05/21 12:18:35;;;;;;;1999.90;999.90;;;;;;;22.90;37.60;99607.13;5051773;28;20547;-74
2021/05/21 12:21:01;;;;;;;1999.90;999.90;;;;;;;22.37;36.58;99583.72;5070940;28;20427;-75
2021/05/21 12:23:33;;;;;;;1999.90;999.90;;;;;;;21.95;38.22;99591.78;5058285;28;21102;-70
2021/05/21 12:26:00;;;;;;;1999.90;999.90;;;;;;;21.55;37.87;99590.22;5046404;28;20432;-80
2021/05/21 12:28:26;;;;;;;;;;;;;;;21.18;38.21;99597.47;5041457;28;20425;-73
2021/05/21 12:30:51;;;;;;;1999.90;999.90;;;;;;;21.51;39.09;99585.31;5045292;28;20977;-72